Time;durP1;ratioP1;P1;durP2;ratioP2;P2;SDS_P1;SDS_P2;PMS_P1;PMS_P2;Temp;Humidity;BMP_temperature;BMP_pressure;BME280_temperature;BME280_humidity;BME280_pressure;Samples;Min_cycle;Max_cycle;Signal;HPM_P1;HPM_P2
2021/05/09 00:00:26;;;;;;;;;;;;;;;6.04;68.90;100068.66;5136749;27;19930;-74
2021/05/09 00:02:57;;;;;;;;;;;;;;;6.06;69.06;100060.28;5136869;27;19923;-74
2021/05/09 00:05:30;;;;;;;;;;;;;;;6.11;69.06;100060.38;5122834;27;19970;-75
2021/05/09 00:08:21;;;;;;;;;;;;;;;6.13;68.84;100057.88;5115538;28;20297;-75
2021/05/09 00:10:50;;;;;;;;;;;;;;;6.14;68.89;100060.47;5115797;28;19927;-75
2021/05/09 00:13:26;;;;;;;;;;;;;;;6.17;68.73;100057.97;5115901;28;19924;-74
2021/05/09 00:15:58;;;;;;;;;;;;;;;6.18;68.65;100063.91;5116031;28;19955;-74
2021/05/09 00:18:29;;;;;;;;;;;;;;;6.13;68.49;100053.66;5115883;27;19927;-74
2021/05/09 00:20:57;;;;;;;;;;;;;;;6.07;68.30;100059.44;5115694;28;19924;-74
2021/05/09 00:23:26;;;;;;;;;;;;;;;5.98;68.43;100058.38;5116101;28;19923;-75
2021/05/09 00:26:11;;;;;;;;;;;;;;;5.97;68.84;100049.91;5115685;28;20346;-75
2021/05/09 00:28:38;;;;;;;;;;;;;;;5.93;68.75;100055.75;5115896;28;19931;-75
2021/05/09 00:31:06;;;;;;;;;;;;;;;5.92;69.13;100055.72;5115753;28;19966;-75
2021/05/09 00:33:34;;;;;;;;;;;;;;;5.92;69.30;100055.72;5124900;27;19923;-75
2021/05/09 00:36:15;;;;;;;;;;;;;;;5.91;69.16;100051.47;5136033;27;19963;-74
2021/05/09 00:38:46;;;;;;;;;;;;;;;5.93;69.10;100054.88;5136214;27;19930;-75
2021/05/09 00:41:16;;;;;;;;;;;;;;;5.90;69.32;100049.75;5131619;27;20300;-74
2021/05/09 00:43:44;;;;;;;;;;;;;;;5.88;69.42;100051.38;5114492;27;19930;-74
2021/05/09 00:46:12;;;;;;;;;;;;;;;5.79;69.34;100061.25;5135089;27;19968;-74
2021/05/09 00:48:40;;;;;;;;;;;;;;;5.80;69.37;100057.91;5116390;27;19927;-74
2021/05/09 00:51:11;;;;;;;;;;;;;;;5.83;69.25;100050.41;5115197;28;19923;-74
2021/05/09 00:53:43;;;;;;;;;;;;;;;5.84;69.34;100054.63;5115082;28;19935;-74
2021/05/09 00:56:13;;;;;;;;;;;;;;;5.83;69.96;100058.00;5115237;28;19924;-74
2021/05/09 00:58:48;;;;;;;;;;;;;;;5.79;69.49;100046.06;5115244;28;19959;-74
2021/05/09 01:01:16;;;;;;;;;;;;;;;5.75;69.32;100044.28;5117796;27;19923;-74
2021/05/09 01:03:47;;;;;;;;;;;;;;;5.73;69.44;100048.47;5132826;27;19931;-74
2021/05/09 01:06:15;;;;;;;;;;;;;;;5.74;69.50;100052.69;5135691;27;19966;-74
2021/05/09 01:08:43;;;;;;;;;;;;;;;5.76;69.42;100043.47;5135921;27;20385;-74
2021/05/09 01:11:12;;;;;;;;;;;;;;;5.77;69.50;100047.72;5116809;27;19924;-74
2021/05/09 01:13:40;;;;;;;;;;;;;;;5.78;69.75;100049.44;5117157;27;20374;-74
2021/05/09 01:16:12;;;;;;;;;;;;;;;5.74;69.66;100043.41;5124773;27;19933;-74
2021/05/09 01:18:43;;;;;;;;;;;;;;;5.70;69.74;100053.44;5115045;28;19958;-74
2021/05/09 01:21:15;;;;;;;;;;;;;;;5.68;69.69;100052.56;5114667;28;20034;-74
2021/05/09 01:23:43;;;;;;;;;;;;;;;5.67;69.76;100050.81;5114836;28;19946;-74
2021/05/09 01:26:15;;;;;;;;;;;;;;;5.67;69.86;100051.69;5096657;28;20288;-74
2021/05/09 01:28:43;;;;;;;;;;;;;;;5.66;69.78;100049.13;5115226;28;19988;-74
2021/05/09 01:31:14;;;;;;;;;;;;;;;5.70;69.47;100050.91;5096980;28;19923;-74
2021/05/09 01:33:45;;;;;;;;;;;;;;;5.70;69.61;100050.91;5114741;28;19923;-73
2021/05/09 01:36:14;;;;;;;;;;;;;;;5.70;69.76;100050.91;5096858;28;20368;-74
2021/05/09 01:38:43;;;;;;;;;;;;;;;5.68;69.57;100047.50;5114433;28;19924;-74
2021/05/09 01:41:11;;;;;;;;;;;;;;;5.68;69.85;100050.03;5113168;28;19924;-74
2021/05/09 01:43:40;;;;;;;;;;;;;;;5.70;69.63;100046.72;5114346;28;20123;-73
2021/05/09 01:46:11;;;;;;;;;;;;;;;5.71;69.70;100055.16;5114259;28;19931;-74
2021/05/09 01:48:43;;;;;;;;;;;;;;;5.72;69.35;100049.25;5114660;28;19928;-74
2021/05/09 01:51:12;;;;;;;;;;;;;;;5.70;69.57;100046.72;5114681;28;19977;-74
2021/05/09 01:53:40;;;;;;;;;;;;;;;5.65;69.38;100047.41;5114582;28;19935;-74
2021/05/09 01:56:12;;;;;;;;;;;;;;;5.61;69.71;100045.63;5114248;28;19924;-74
2021/05/09 01:58:44;;;;;;;;;;;;;;;5.63;69.83;100041.44;5114712;28;19930;-73
2021/05/09 02:01:19;;;;;;;;;;;;;;;5.63;69.49;100049.03;5096203;28;19967;-73
2021/05/09 02:04:01;;;;;;;;;;;;;;;5.65;69.84;100038.16;5114635;28;19931;-74
2021/05/09 02:06:35;;;;;;;;;;;;;;;5.68;69.50;100042.44;5114468;28;19931;-74
2021/05/09 02:09:04;;;;;;;;;;;;;;;5.63;69.44;100047.38;5114570;28;19924;-75
2021/05/09 02:11:40;;;;;;;;;;;;;;;5.61;69.44;100040.56;5114581;28;19971;-73
2021/05/09 02:14:29;;;;;;;;;;;;;;;5.59;69.16;100044.75;5114693;28;20385;-74
2021/05/09 02:17:03;;;;;;;;;;;;;;;5.56;69.53;100044.66;5118138;28;19923;-74
2021/05/09 02:19:32;;;;;;;;;;;;;;;5.56;69.71;100042.13;5119096;28;19923;-73
2021/05/09 02:22:00;;;;;;;;;;;;;;;5.54;69.33;100043.75;5117583;27;19955;-74
2021/05/09 02:24:32;;;;;;;;;;;;;;;5.54;69.40;100043.75;5111431;28;19973;-73
2021/05/09 02:27:04;;;;;;;;;;;;;;;5.55;69.87;100040.41;5117766;27;19934;-74
2021/05/09 02:29:33;;;;;;;;;;;;;;;5.49;69.67;100050.38;5100083;28;19924;-73
2021/05/09 02:32:04;;;;;;;;;;;;;;;5.47;69.84;100046.97;5118107;28;19927;-74
2021/05/09 02:34:36;;;;;;;;;;;;;;;5.44;70.04;100047.75;5117881;28;20014;-74
2021/05/09 02:37:06;;;;;;;;;;;;;;;5.43;69.63;100046.88;5118050;28;19924;-74
2021/05/09 02:39:35;;;;;;;;;;;;;;;5.40;69.89;100045.94;5117935;28;20339;-74
2021/05/09 02:42:04;;;;;;;;;;;;;;;5.39;69.89;100045.09;5117851;27;20373;-74
2021/05/09 02:44:34;;;;;;;;;;;;;;;5.42;70.06;100050.22;5117724;28;19930;-74
2021/05/09 02:47:08;;;;;;;;;;;;;;;5.42;70.16;100050.22;5117693;28;19924;-75
2021/05/09 02:49:42;;;;;;;;;;;;;;;5.38;69.84;100047.56;5099701;28;19923;-74
2021/05/09 02:52:13;;;;;;;;;;;;;;;5.35;70.24;100050.88;5117775;28;20365;-74
2021/05/09 02:54:42;;;;;;;;;;;;;;;5.34;70.38;100046.66;5082420;27;19967;-74
2021/05/09 02:57:14;;;;;;;;;;;;;;;5.29;70.15;100053.25;5117920;27;20341;-74
2021/05/09 02:59:46;;;;;;;;;;;;;;;5.28;70.51;100055.72;5117534;28;19924;-74
2021/05/09 03:02:20;;;;;;;;;;;;;;;5.25;70.23;100056.53;5117326;27;19930;-73
2021/05/09 03:04:53;;;;;;;;;;;;;;;5.20;70.20;100052.16;5117350;27;19924;-73
2021/05/09 03:07:25;;;;;;;;;;;;;;;5.16;70.31;100056.28;5099029;28;19924;-74
2021/05/09 03:09:53;;;;;;;;;;;;;;;5.14;70.73;100062.97;5118952;27;20058;-74
2021/05/09 03:12:26;;;;;;;;;;;;;;;5.16;70.86;100060.50;5137813;27;19923;-73
2021/05/09 03:14:58;;;;;;;;;;;;;;;5.19;70.77;100056.34;5137858;27;20365;-74
2021/05/09 03:17:26;;;;;;;;;;;;;;;5.21;70.69;100064.84;5137795;27;20274;-74
2021/05/09 03:20:00;;;;;;;;;;;;;;;5.23;70.77;100062.38;5137637;27;20353;-74
2021/05/09 03:22:28;;;;;;;;;;;;;;;5.25;70.73;100065.78;5137711;27;19974;-74
2021/05/09 03:25:00;;;;;;;;;;;;;;;5.25;70.40;100066.66;5136068;27;19923;-74
2021/05/09 03:27:30;;;;;;;;;;;;;;;5.26;70.87;100065.81;5134442;27;20014;-74
2021/05/09 03:30:02;;;;;;;;;;;;;;;5.25;70.35;100075.91;5137841;27;19958;-73
2021/05/09 03:32:30;;;;;;;;;;;;;;;5.25;70.34;100066.66;5138156;27;20006;-74
2021/05/09 03:35:02;;;;;;;;;;;;;;;5.29;70.27;100075.16;5137735;27;20380;-74
2021/05/09 03:37:34;;;;;;;;;;;;;;;5.26;70.67;100070.88;5137466;27;19974;-73
2021/05/09 03:40:06;;;;;;;;;;;;;;;5.24;70.48;100075.06;5118776;27;19924;-74
2021/05/09 03:42:38;;;;;;;;;;;;;;;5.27;70.55;100072.63;5116867;28;19938;-74
2021/05/09 03:45:10;;;;;;;;;;;;;;;5.28;70.31;100086.97;5125413;27;19923;-74
2021/05/09 03:47:41;;;;;;;;;;;;;;;5.30;70.45;100077.72;5137194;27;20377;-73
2021/05/09 03:50:10;;;;;;;;;;;;;;;5.35;70.96;100088.00;5137254;27;19930;-74
2021/05/09 03:52:41;;;;;;;;;;;;;;;5.39;70.44;100089.78;5132678;27;19934;-72
2021/05/09 03:55:13;;;;;;;;;;;;;;;5.46;70.55;100085.72;5116560;28;19924;-73
2021/05/09 03:57:42;;;;;;;;;;;;;;;5.46;70.47;100091.66;5117123;28;19932;-73
2021/05/09 04:00:14;;;;;;;;;;;;;;;5.49;70.41;100091.75;5097895;28;20516;-73
2021/05/09 04:02:50;;;;;;;;;;;;;;;5.56;70.51;100100.34;5116346;28;19924;-73
2021/05/09 04:05:18;;;;;;;;;;;;;;;5.63;70.80;100097.16;5116483;28;19924;-73
2021/05/09 04:07:45;;;;;;;;;;;;;;;5.68;70.47;100086.34;5116281;27;19959;-73
2021/05/09 04:10:17;;;;;;;;;;;;;;;5.78;70.57;100095.00;5115718;28;20011;-73
2021/05/09 04:12:52;;;;;;;;;;;;;;;5.87;70.20;100092.75;5116070;28;19948;-73
2021/05/09 04:15:21;;;;;;;;;;;;;;;5.94;69.84;100098.00;5116324;28;19923;-73
2021/05/09 04:17:52;;;;;;;;;;;;;;;6.03;70.12;100087.22;5115963;28;19946;-73
2021/05/09 04:20:20;;;;;;;;;;;;;;;6.16;69.86;100091.75;5115700;28;19924;-73
2021/05/09 04:22:51;;;;;;;;;;;;;;;6.25;69.79;100086.91;5115605;28;19931;-73
2021/05/09 04:25:19;;;;;;;;;;;;;;;6.43;69.47;100074.63;5115837;28;19923;-73
2021/05/09 04:27:47;;;;;;;;;;;;;;;6.54;69.44;100088.41;5115733;28;19974;-73
2021/05/09 04:30:21;;;;;;;;;;;;;;;6.72;69.19;100093.84;5115612;28;20018;-72
2021/05/09 04:32:57;;;;;;;;;;;;;;;6.95;69.23;100090.94;5115704;28;20356;-73
2021/05/09 04:35:27;;;;;;;;;;;;;;;7.17;68.85;100083.81;5115673;28;20312;-72
2021/05/09 04:37:56;;;;;;;;;;;;;;;7.34;68.21;100091.72;5117827;27;19924;-73
2021/05/09 04:40:27;;;;;;;;;;;;;;;7.55;68.44;100092.13;5135826;27;19924;-72
2021/05/09 04:42:56;;;;;;;;;;;;;;;7.71;67.91;100099.16;5131836;27;20017;-73
2021/05/09 04:45:25;;;;;;;;;;;;;;;7.77;67.43;100099.28;5135908;27;19954;-72
2021/05/09 04:47:56;;;;;;;;;;;;;;;7.83;67.12;100099.38;5135858;27;19930;-73
2021/05/09 04:50:25;;;;;;;;;;;;;;;7.88;66.40;100092.69;5129203;27;19924;-73
2021/05/09 04:52:59;;;;;;;;;;;;;;;8.05;66.59;100096.38;5115275;28;20384;-73
2021/05/09 04:55:27;;;;;;;;;;;;;;;8.27;66.01;100099.28;5115218;28;19989;-73
2021/05/09 04:58:00;;;;;;;;;;;;;;;8.44;66.47;100102.91;5115186;28;19931;-72
2021/05/09 05:00:29;;;;;;;;;;;;;;;8.60;66.04;100099.75;5096945;28;19923;-73
2021/05/09 05:03:00;;;;;;;;;;;;;;;8.80;65.17;100093.25;5115350;28;20320;-72
2021/05/09 05:05:28;;;;;;;;;;;;;;;8.98;65.48;100100.25;5096625;28;20014;-73
2021/05/09 05:08:04;;;;;;;;;;;;;;;9.13;65.37;100102.97;5115387;28;19950;-72
2021/05/09 05:10:33;;;;;;;;;;;;;;;9.29;64.84;100105.72;5114286;28;19923;-73
2021/05/09 05:13:03;;;;;;;;;;;;;;;9.45;64.38;100110.13;5114622;28;20385;-72
2021/05/09 05:15:32;;;;;;;;;;;;;;;9.56;64.44;100107.72;5114986;28;19935;-73
2021/05/09 05:18:03;;;;;;;;;;;;;;;9.72;64.09;100108.69;5115204;28;19931;-73
2021/05/09 05:20:32;;;;;;;;;;;;;;;9.88;64.25;100102.91;5114197;27;20010;-73
2021/05/09 05:23:05;;;;;;;;;;;;;;;10.06;64.22;100109.03;5114844;28;19962;-73
2021/05/09 05:25:33;;;;;;;;;;;;;;;10.20;63.93;100101.50;5115143;28;19930;-73
2021/05/09 05:28:03;;;;;;;;;;;;;;;10.37;63.56;100094.81;5114714;28;19923;-73
2021/05/09 05:30:32;;;;;;;;;;;;;;;10.49;63.59;100092.34;5114555;28;20378;-73
2021/05/09 05:33:04;;;;;;;;;;;;;;;10.68;62.98;100093.31;5114028;28;19963;-73
2021/05/09 05:35:40;;;;;;;;;;;;;;;10.85;62.49;100095.94;5114507;28;19923;-74
2021/05/09 05:38:16;;;;;;;;;;;;;;;11.01;61.69;100097.72;5114505;28;20456;-73
2021/05/09 05:40:44;;;;;;;;;;;;;;;11.17;61.68;100086.72;5114312;28;20369;-73
2021/05/09 05:43:12;;;;;;;;;;;;;;;11.36;61.31;100096.16;5114798;28;19936;-74
2021/05/09 05:45:49;;;;;;;;;;;;;;;11.46;60.61;100095.31;5115332;28;19951;-73
2021/05/09 05:48:18;;;;;;;;;;;;;;;11.67;60.21;100110.69;5119845;28;19992;-74
2021/05/09 05:50:46;;;;;;;;;;;;;;;11.85;59.41;100113.31;5135788;27;19930;-73
2021/05/09 05:53:16;;;;;;;;;;;;;;;12.05;58.68;100111.63;5139091;27;19930;-74
2021/05/09 05:55:48;;;;;;;;;;;;;;;12.22;57.84;100113.31;5139309;27;19954;-73
2021/05/09 05:58:16;;;;;;;;;;;;;;;12.37;57.44;100118.44;5139336;27;19923;-73
2021/05/09 06:00:45;;;;;;;;;;;;;;;12.55;56.87;100118.41;5139262;27;20284;-73
2021/05/09 06:03:14;;;;;;;;;;;;;;;12.74;56.27;100117.53;5122273;27;19924;-73
2021/05/09 06:05:43;;;;;;;;;;;;;;;12.87;55.18;100116.63;5118439;28;19931;-73
2021/05/09 06:08:11;;;;;;;;;;;;;;;13.03;54.91;100112.31;5118793;28;19950;-73
2021/05/09 06:10:39;;;;;;;;;;;;;;;13.10;54.43;100114.84;5121347;27;19924;-73
2021/05/09 06:13:07;;;;;;;;;;;;;;;13.14;53.95;100114.00;5128546;27;19968;-73
2021/05/09 06:15:35;;;;;;;;;;;;;;;13.25;53.68;100113.94;5137815;27;19968;-74
2021/05/09 06:18:03;;;;;;;;;;;;;;;13.37;52.91;100114.75;5138296;27;19923;-73
2021/05/09 06:20:32;;;;;;;;;;;;;;;13.55;52.50;100107.81;5129220;27;19935;-73
2021/05/09 06:23:02;;;;;;;;;;;;;;;13.71;52.19;100104.28;5134590;27;19962;-74
2021/05/09 06:25:31;;;;;;;;;;;;;;;13.87;50.26;100100.75;5136004;27;19935;-73
2021/05/09 06:27:59;;;;;;;;;;;;;;;14.04;48.98;100107.47;5118119;28;19923;-74
2021/05/09 06:30:29;;;;;;;;;;;;;;;14.06;48.97;100103.16;5120888;27;19924;-72
2021/05/09 06:33:01;;;;;;;;;;;;;;;14.15;49.51;100103.97;5138470;27;20380;-73
2021/05/09 06:35:37;;;;;;;;;;;;;;;14.24;49.87;100102.16;5138789;27;19930;-73
2021/05/09 06:38:05;;;;;;;;;;;;;;;14.40;49.87;100096.03;5137937;27;19927;-73
2021/05/09 06:40:34;;;;;;;;;;;;;;;14.52;50.05;100102.78;5138093;27;19923;-73
2021/05/09 06:43:03;;;;;;;;;;;;;;;14.63;49.47;100101.81;5134287;27;19927;-75
2021/05/09 06:45:32;;;;;;;;;;;;;;;14.70;47.93;100103.47;5122220;27;19974;-73
2021/05/09 06:48:02;;;;;;;;;;;;;;;14.72;46.80;100112.00;5136927;27;19923;-73
2021/05/09 06:50:32;;;;;;;;;;;;;;;14.73;46.39;100103.41;5137764;27;20057;-72
2021/05/09 06:53:02;;;;;;;;;;;;;;;14.86;47.34;100108.41;5137839;27;19924;-73
2021/05/09 06:55:30;;;;;;;;;;;;;;;15.05;47.57;100103.03;5137814;27;19923;-73
2021/05/09 06:57:58;;;;;;;;;;;;;;;15.12;46.32;100104.66;5135488;27;19924;-73
2021/05/09 07:00:28;;;;;;;;;;;;;;;15.27;46.82;100101.06;5127329;27;20289;-73
2021/05/09 07:02:56;;;;;;;;;;;;;;;15.49;47.10;100097.38;5117701;28;19923;-73
2021/05/09 07:05:25;;;;;;;;;;;;;;;15.63;46.73;100100.59;5135442;27;20013;-73
2021/05/09 07:07:53;;;;;;;;;;;;;;;15.78;46.53;100104.66;5119396;27;19928;-73
2021/05/09 07:10:23;;;;;;;;;;;;;;;15.78;46.53;100102.94;5137413;27;19934;-73
2021/05/09 07:12:51;;;;;;;;;;;;;;;15.86;45.84;100097.69;5126361;27;19924;-73
2021/05/09 07:15:25;;;;;;;;;;;;;;;15.82;45.83;100103.72;5116949;28;19923;-72
2021/05/09 07:17:54;;;;;;;;;;;;;;;15.75;45.93;100099.56;5117305;28;19927;-72
2021/05/09 07:20:22;;;;;;;;;;;;;;;15.77;45.62;100093.50;5119605;27;19928;-73
2021/05/09 07:22:54;;;;;;;;;;;;;;;15.83;45.18;100098.59;5129994;27;19980;-73
2021/05/09 07:25:24;;;;;;;;;;;;;;;15.85;45.94;100094.25;5122984;27;19938;-72
2021/05/09 07:27:52;;;;;;;;;;;;;;;15.80;45.59;100098.63;5122674;27;20383;-72
2021/05/09 07:30:20;;;;;;;;;;;;;;;15.84;46.67;100095.13;5136386;27;19930;-73
2021/05/09 07:32:49;;;;;;;;;;;;;;;15.84;45.01;100089.97;5130827;27;19924;-72
2021/05/09 07:35:17;;;;;;;;;;;;;;;15.93;45.92;100094.97;5116653;28;20335;-72
2021/05/09 07:37:45;;;;;;;;;;;;;;;16.13;45.17;100093.78;5116669;28;19923;-73
2021/05/09 07:40:13;;;;;;;;;;;;;;;16.24;44.23;100090.19;5116067;27;19924;-72
2021/05/09 07:42:42;;;;;;;;;;;;;;;16.27;44.13;100084.13;5128502;27;19927;-73
2021/05/09 07:45:15;;;;;;;;;;;;;;;16.36;44.37;100079.66;5124226;27;20435;-73
2021/05/09 07:47:44;;;;;;;;;;;;;;;16.46;44.65;100082.94;5124669;27;20288;-73
2021/05/09 07:50:15;;;;;;;;;;;;;;;16.43;44.43;100094.16;5122762;27;19963;-74
2021/05/09 07:52:44;;;;;;;;;;;;;;;16.48;43.69;100094.06;5119604;27;19931;-72
2021/05/09 07:55:12;;;;;;;;;;;;;;;16.45;43.76;100078.66;5128179;27;19965;-73
2021/05/09 07:57:42;;;;;;;;;;;;;;;16.60;43.76;100083.56;5128943;27;19930;-72
2021/05/09 08:00:13;;;;;;;;;;;;;;;16.69;44.22;100091.13;5130699;27;20370;-72
2021/05/09 08:02:49;;;;;;;;;;;;;;;16.65;43.72;100081.75;5122801;27;19924;-72
2021/05/09 08:05:18;;;;;;;;;;;;;;;16.72;44.30;100089.31;5110531;27;19924;-74
2021/05/09 08:07:49;;;;;;;;;;;;;;;16.77;43.89;100084.91;5115228;28;19923;-72
2021/05/09 08:10:17;;;;;;;;;;;;;;;16.81;43.34;100088.28;5114766;28;19923;-72
2021/05/09 08:12:46;;;;;;;;;;;;;;;16.92;43.39;100081.19;5113881;28;19931;-71
2021/05/09 08:15:19;;;;;;;;;;;;;;;16.98;43.06;100075.94;5115068;28;19923;-72
2021/05/09 08:17:50;;;;;;;;;;;;;;;17.11;43.13;100077.34;5117212;27;20277;-73
2021/05/09 08:20:20;;;;;;;;;;;;;;;17.15;43.00;100065.25;5124594;27;19931;-73
2021/05/09 08:22:49;;;;;;;;;;;;;;;17.28;43.20;100072.69;5136335;27;19946;-72
2021/05/09 08:25:18;;;;;;;;;;;;;;;17.34;42.48;100067.41;5120692;27;19955;-71
2021/05/09 08:27:53;;;;;;;;;;;;;;;17.27;42.26;100063.28;5127980;27;19923;-74
2021/05/09 08:30:25;;;;;;;;;;;;;;;17.24;42.00;100067.63;5112525;27;19924;-73
2021/05/09 08:33:00;;;;;;;;;;;;;;;17.38;43.13;100070.75;5123234;27;19924;-73
2021/05/09 08:35:41;;;;;;;;;;;;;;;17.52;42.98;100081.66;5115518;28;19931;-72
2021/05/09 08:38:09;;;;;;;;;;;;;;;17.53;42.72;100079.94;5115338;27;19931;-73
2021/05/09 08:40:39;;;;;;;;;;;;;;;17.47;42.67;100074.88;5116032;28;20006;-72
2021/05/09 08:43:09;;;;;;;;;;;;;;;17.53;42.94;100074.75;5115498;28;19967;-73
2021/05/09 08:45:37;;;;;;;;;;;;;;;17.66;43.51;100079.59;5115427;28;19954;-73
2021/05/09 08:48:06;;;;;;;;;;;;;;;17.76;43.00;100075.06;5116447;28;19924;-72
2021/05/09 08:50:34;;;;;;;;;;;;;;;17.86;41.62;100064.50;5115357;28;20005;-72
2021/05/09 08:53:02;;;;;;;;;;;;;;;17.92;42.10;100069.50;5115004;28;19950;-73
2021/05/09 08:55:30;;;;;;;;;;;;;;;17.95;41.71;100063.41;5115576;28;20393;-72
2021/05/09 08:57:58;;;;;;;;;;;;;;;17.91;41.93;100067.81;5114776;28;19967;-71
2021/05/09 09:00:27;;;;;;;;;;;;;;;17.92;41.59;100073.84;5116479;27;20384;-72
2021/05/09 09:03:01;;;;;;;;;;;;;;;18.02;41.93;100070.13;5117109;27;20025;-73
2021/05/09 09:05:34;;;;;;;;;;;;;;;18.12;42.33;100065.56;5135951;27;19930;-72
2021/05/09 09:08:02;;;;;;;;;;;;;;;18.27;42.17;100066.06;5123551;27;19927;-73
2021/05/09 09:10:31;;;;;;;;;;;;;;;18.04;40.47;100083.88;5096248;28;20293;-71
2021/05/09 09:13:03;;;;;;;;;;;;;;;17.85;40.36;100077.47;5119343;27;20313;-74
2021/05/09 09:15:43;;;;;;;;;;;;;;;17.99;41.29;100080.56;5121872;27;19928;-74
2021/05/09 09:18:25;;;;;;;;;;;;;;;18.28;41.97;100082.41;5115241;27;20345;-70
2021/05/09 09:20:54;;;;;;;;;;;;;;;18.35;40.79;100073.63;5117800;27;20391;-73
2021/05/09 09:23:22;;;;;;;;;;;;;;;18.20;40.50;100080.03;5129013;27;19934;-71
2021/05/09 09:25:50;;;;;;;;;;;;;;;18.24;40.61;100086.78;5120671;27;20019;-72
2021/05/09 09:28:20;;;;;;;;;;;;;;;18.27;40.32;100068.63;5133356;27;19972;-71
2021/05/09 09:30:49;;;;;;;;;;;;;;;18.34;39.59;100069.31;5130604;27;19923;-72
2021/05/09 09:33:18;;;;;;;;;;;;;;;18.33;39.84;100083.97;5127009;27;19924;-74
2021/05/09 09:35:54;;;;;;;;;;;;;;;18.44;39.26;100073.38;5134833;27;19928;-71
2021/05/09 09:38:29;;;;;;;;;;;;;;;18.56;39.80;100079.09;5135244;27;19934;-71
2021/05/09 09:41:09;;;;;;;;;;;;;;;18.54;39.98;100070.53;5133093;27;19928;-72
2021/05/09 09:43:36;;;;;;;;;;;;;;;18.76;40.44;100072.53;5135171;27;20018;-71
2021/05/09 09:46:05;;;;;;;;;;;;;;;18.85;40.27;100073.13;5123663;28;20262;-75
2021/05/09 09:48:38;;;;;;;;;;;;;;;18.84;38.44;100065.38;5120379;27;19972;-72
2021/05/09 09:51:08;;;;;;;;;;;;;;;18.76;38.18;100064.78;5134854;28;19923;-72
2021/05/09 09:53:38;;;;;;;;;;;;;;;18.69;37.82;100059.75;5128723;28;19923;-72
2021/05/09 09:56:07;;;;;;;;;;;;;;;18.86;38.14;100067.03;5114459;28;20022;-71
2021/05/09 09:58:45;;;;;;;;;;;;;;;18.91;38.58;100074.72;5122652;28;19968;-72
2021/05/09 10:01:14;;;;;;;;;;;;;;;18.91;38.17;100064.34;5107852;28;20434;-71
2021/05/09 10:03:42;;;;;;;;;;;;;;;18.98;38.44;100065.88;5114464;28;20010;-71
2021/05/09 10:06:11;;;;;;;;;;;;;;;19.08;36.92;100064.69;5114492;28;19951;-71
2021/05/09 10:08:39;;;;;;;;;;;;;;;19.16;37.20;100054.97;5095965;28;19986;-74
2021/05/09 10:11:08;;;;;;;;;;;;;;;19.42;38.66;100065.44;5125805;28;19963;-72
2021/05/09 10:13:36;;;;;;;;;;;;;;;19.47;38.14;100066.13;5134815;28;19969;-71
2021/05/09 10:16:07;;;;;;;;;;;;;;;19.32;37.81;100070.00;5132858;28;19959;-72
2021/05/09 10:18:38;;;;;;;;;;;;;;;19.28;37.96;100060.66;5134048;28;19924;-72
2021/05/09 10:21:06;;;;;;;;;;;;;;;19.42;36.90;100056.81;5134578;28;19969;-73
2021/05/09 10:23:35;;;;;;;;;;;;;;;19.43;36.60;100059.38;5116345;28;19923;-72
2021/05/09 10:26:03;;;;;;;;;;;;;;;19.47;37.24;100065.28;5127706;28;19924;-72
2021/05/09 10:28:37;;;;;;;;;;;;;;;19.62;37.62;100060.50;5113789;28;19928;-72
2021/05/09 10:31:05;;;;;;;;;;;;;;;19.72;38.11;100061.06;5112639;28;20292;-72
2021/05/09 10:33:44;;;;;;;;;;;;;;;19.67;36.81;100052.56;5126670;27;19923;-71
2021/05/09 10:36:32;;;;;;;;;;;;;;;19.68;36.48;100060.28;5133404;27;19927;-75
2021/05/09 10:39:15;;;;;;;;;;;;;;;19.73;36.38;100045.44;5125053;27;19931;-73
2021/05/09 10:42:04;;;;;;;;;;;;;;;19.83;36.96;100052.03;5129141;27;20369;-72
2021/05/09 10:44:44;;;;;;;;;;;;;;;19.93;37.17;100056.03;5127835;27;20399;-72
2021/05/09 10:47:38;;;;;;;;;;;;;;;19.87;35.14;100050.16;5138383;27;19959;-71
2021/05/09 10:50:25;;;;;;;;;;;;;;;19.95;36.84;100046.44;5124215;27;19924;-70
2021/05/09 10:52:53;;;;;;;;;;;;;;;20.04;37.20;100038.34;5138247;27;19924;-72
2021/05/09 10:55:32;;;;;;;;;;;;;;;20.07;35.95;100040.00;5131655;27;20018;-72
2021/05/09 10:58:01;;;;;;;;;;;;;;;20.15;35.32;100029.38;5120361;27;19923;-71
2021/05/09 11:00:47;;;;;;;;;;;;;;;20.15;35.40;100047.53;5117640;28;19924;-72
2021/05/09 11:03:30;;;;;;;;;;;;;;;20.13;35.80;100041.56;5116535;28;19924;-73
2021/05/09 11:06:04;;;;;;;;;;;;;;;20.06;35.26;100036.56;5116512;28;19966;-72
2021/05/09 11:08:55;;;;;;;;;;;;;;;20.17;35.24;100028.44;5133466;27;19931;-72
2021/05/09 11:11:40;;;;;;;;;;;;;;;20.29;35.55;100033.22;5119116;27;20372;-74
2021/05/09 11:14:19;;;;;;;;;;;;;;;20.37;35.45;100014.81;5117937;28;20379;-72
2021/05/09 11:17:01;;;;;;;;;;;;;;;20.62;35.03;100010.44;5117401;28;19924;-72
2021/05/09 11:19:50;;;;;;;;;;;;;;;20.65;35.26;100018.13;5117221;28;19958;-73
2021/05/09 11:22:22;;;;;;;;;;;;;;;20.55;33.82;100014.16;5111348;28;20374;-71
2021/05/09 11:24:55;;;;;;;;;;;;;;;20.57;34.37;100009.75;5116926;28;20258;-73
2021/05/09 11:27:23;;;;;;;;;;;;;;;20.51;33.66;100010.00;5116456;27;19928;-72
2021/05/09 11:29:52;;;;;;;;;;;;;;;20.55;33.98;99998.59;5128616;27;20116;-72
2021/05/09 11:32:22;;;;;;;;;;;;;;;20.76;34.02;99992.59;5137280;27;19927;-73
2021/05/09 11:34:55;;;;;;;;;;;;;;;20.97;34.11;99990.97;5123015;27;19950;-73
2021/05/09 11:37:35;;;;;;;;;;;;;;;21.14;34.37;99984.25;5116903;28;20019;-72
2021/05/09 11:40:05;;;;;;;;;;;;;;;21.17;34.16;99983.28;5135517;27;19930;-73
2021/05/09 11:42:33;;;;;;;;;;;;;;;21.11;34.53;99986.97;5130896;27;19924;-72
2021/05/09 11:45:01;;;;;;;;;;;;;;;21.02;34.94;99995.06;5081138;28;19948;-73
2021/05/09 11:47:31;;;;;;;;;;;;;;;21.11;34.80;99984.38;5115258;28;19930;-72
2021/05/09 11:50:03;;;;;;;;;;;;;;;21.06;33.70;100001.88;5131060;27;20387;-71
2021/05/09 11:52:35;;;;;;;;;;;;;;;20.92;33.85;99987.72;5124617;27;20360;-72
2021/05/09 11:55:04;;;;;;;;;;;;;;;20.98;34.72;99988.31;5130220;27;20018;-72
2021/05/09 11:57:33;;;;;;;;;;;;;;;21.10;34.70;99977.50;5116299;28;19927;-72
2021/05/09 12:00:10;;;;;;;;;;;;;;;21.24;35.10;99980.38;5116358;28;20010;-71
2021/05/09 12:02:39;;;;;;;;;;;;;;;21.20;34.62;99989.22;5124109;27;19968;-72
2021/05/09 12:05:11;;;;;;;;;;;;;;;21.17;34.45;99976.34;5137361;27;19924;-75
2021/05/09 12:07:44;;;;;;;;;;;;;;;21.04;33.59;99988.06;5118261;27;19930;-72
2021/05/09 12:10:14;;;;;;;;;;;;;;;20.96;33.58;99968.50;5123500;27;19959;-72
2021/05/09 12:12:43;;;;;;;;;;;;;;;21.11;33.50;99974.00;5115913;28;20404;-74
2021/05/09 12:15:12;;;;;;;;;;;;;;;21.16;32.99;99966.84;5116020;28;19927;-73
2021/05/09 12:17:51;;;;;;;;;;;;;;;21.26;34.74;99952.59;5116007;28;19947;-70
2021/05/09 12:20:25;;;;;;;;;;;;;;;21.36;34.46;99959.13;5116012;28;19924;-72
2021/05/09 12:22:54;;;;;;;;;;;;;;;21.27;34.05;99954.31;5115586;28;19924;-72
2021/05/09 12:25:29;;;;;;;;;;;;;;;21.21;33.92;99948.53;5117114;27;19992;-71
2021/05/09 12:28:04;;;;;;;;;;;;;;;21.32;33.78;99952.38;5115855;28;19924;-71
2021/05/09 12:30:33;;;;;;;;;;;;;;;21.46;33.28;99937.97;5115582;28;19928;-71
2021/05/09 12:33:01;;;;;;;;;;;;;;;21.44;32.98;99939.78;5120654;27;19934;-71
2021/05/09 12:35:41;;;;;;;;;;;;;;;21.49;33.71;99930.91;5136172;27;19923;-70
2021/05/09 12:38:09;;;;;;;;;;;;;;;21.56;34.09;99931.50;5127959;27;19963;-72
2021/05/09 12:40:38;;;;;;;;;;;;;;;21.72;34.48;99935.13;5115628;28;20434;-72
2021/05/09 12:43:07;;;;;;;;;;;;;;;21.86;33.67;99927.63;5115532;28;20334;-71
2021/05/09 12:45:38;;;;;;;;;;;;;;;21.85;32.65;99925.97;5115612;28;19924;-71
2021/05/09 12:48:07;;;;;;;;;;;;;;;21.88;32.01;99923.22;5116442;28;20343;-71
2021/05/09 12:50:46;;;;;;;;;;;;;;;21.79;32.66;99920.97;5114503;28;20010;-73
2021/05/09 12:53:15;;;;;;;;;;;;;;;21.80;32.36;99920.06;5115281;28;19923;-71
2021/05/09 12:55:43;;;;;;;;;;;;;;;21.92;33.13;99917.84;5114714;28;20274;-70
2021/05/09 12:58:13;;;;;;;;;;;;;;;21.89;33.81;99922.31;5115085;28;19924;-70
2021/05/09 13:00:42;;;;;;;;;;;;;;;21.70;32.19;99922.22;5115400;28;19970;-71
2021/05/09 13:03:10;;;;;;;;;;;;;;;21.67;33.09;99900.69;5115208;28;20035;-74